createdAt,value
2019-03-15T00:03:56.619Z,70.20
2019-03-15T00:08:48.307Z,69.20
2019-03-15T00:13:39.975Z,68.50
2019-03-15T00:18:30.895Z,68.40
2019-03-15T00:23:22.553Z,68.90
2019-03-15T00:28:14.239Z,69.30
2019-03-15T00:33:05.164Z,69.30
2019-03-15T00:37:56.595Z,69.60
2019-03-15T00:42:47.115Z,69.60
2019-03-15T00:47:38.039Z,70.10
2019-03-15T00:52:28.961Z,68.60
2019-03-15T00:57:20.705Z,68.50
2019-03-15T01:02:11.647Z,68.60
2019-03-15T01:07:02.524Z,68.90
2019-03-15T01:11:53.448Z,69.40
2019-03-15T01:16:44.377Z,69.60
2019-03-15T01:21:35.307Z,69.80
2019-03-15T01:26:26.983Z,68.50
2019-03-15T01:31:17.907Z,68.50
2019-03-15T01:36:08.831Z,68.10
2019-03-15T01:40:59.915Z,68.50
2019-03-15T01:45:50.725Z,69.20
2019-03-15T01:50:42.383Z,69.80
2019-03-15T01:55:33.328Z,69.70
2019-03-15T02:00:24.239Z,69.80
2019-03-15T02:05:15.138Z,69.70
2019-03-15T02:10:06.043Z,68.70
2019-03-15T02:14:56.946Z,68.40
2019-03-15T02:19:47.864Z,68.90
2019-03-15T02:24:38.782Z,68.60
2019-03-15T02:29:29.707Z,69.30
2019-03-15T02:34:21.376Z,69.90
2019-03-15T02:39:12.300Z,69.80
2019-03-15T02:44:03.242Z,69.40
2019-03-15T02:48:54.164Z,68.60
2019-03-15T02:53:45.094Z,68.60
2019-03-15T02:58:36.004Z,68.90
2019-03-15T03:03:26.924Z,69.30
2019-03-15T03:08:17.839Z,69.40
2019-03-15T03:13:08.770Z,69.40
2019-03-15T03:17:59.688Z,70.00
2019-03-15T03:22:50.599Z,69.30
2019-03-15T03:27:41.567Z,68.40
2019-03-15T03:32:32.442Z,68.40
2019-03-15T03:37:24.236Z,69.30
2019-03-15T03:42:15.044Z,69.30
2019-03-15T03:47:05.973Z,69.50
2019-03-15T03:51:57.008Z,69.60
2019-03-15T03:56:47.915Z,70.40
2019-03-15T04:01:38.824Z,68.80
2019-03-15T04:06:29.724Z,68.20
2019-03-15T04:11:21.384Z,68.90
2019-03-15T04:16:12.304Z,68.90
2019-03-15T04:21:03.206Z,69.30
2019-03-15T04:25:54.867Z,69.80
2019-03-15T04:30:45.780Z,69.80
2019-03-15T04:35:36.692Z,69.80
2019-03-15T04:40:27.603Z,68.30
2019-03-15T04:45:19.601Z,68.20
2019-03-15T04:50:10.518Z,68.60
2019-03-15T04:55:01.479Z,69.00
2019-03-15T04:59:52.380Z,69.40
2019-03-15T05:04:43.304Z,69.70
2019-03-15T05:09:34.951Z,70.20
2019-03-15T05:14:26.593Z,68.60
2019-03-15T05:19:18.241Z,68.40
2019-03-15T05:24:09.226Z,68.40
2019-03-15T05:29:00.143Z,68.70
2019-03-15T05:33:51.059Z,69.40
2019-03-15T05:38:43.532Z,69.50
2019-03-15T05:43:34.411Z,69.40
2019-03-15T05:48:26.067Z,69.90
2019-03-15T05:53:16.987Z,69.90
2019-03-15T05:58:07.940Z,68.70
2019-03-15T06:02:58.844Z,68.60
2019-03-15T06:07:49.783Z,68.90
2019-03-15T06:12:40.678Z,69.40
2019-03-15T06:17:32.343Z,69.70
2019-03-15T06:22:23.269Z,69.60
2019-03-15T06:27:21.308Z,70.40
2019-03-15T06:32:12.325Z,69.60
2019-03-15T06:37:03.165Z,68.90
2019-03-15T06:41:54.835Z,69.30
2019-03-15T06:46:45.751Z,69.30
2019-03-15T06:51:36.651Z,69.90
2019-03-15T06:56:27.565Z,70.00
2019-03-15T07:01:18.484Z,70.30
2019-03-15T07:06:09.390Z,70.30
2019-03-15T07:11:01.052Z,68.20
2019-03-15T07:15:51.951Z,68.20
2019-03-15T07:20:42.863Z,68.10
2019-03-15T07:25:34.533Z,68.90
2019-03-15T07:30:25.436Z,68.90
2019-03-15T07:35:16.347Z,69.30
2019-03-15T07:40:08.236Z,69.40
2019-03-15T07:44:59.166Z,69.60
2019-03-15T07:49:50.821Z,67.70
2019-03-15T07:54:42.496Z,68.30
2019-03-15T07:59:33.414Z,67.80
2019-03-15T08:04:24.415Z,68.20
2019-03-15T08:09:15.268Z,68.60
2019-03-15T08:14:06.184Z,68.80
2019-03-15T08:18:57.124Z,69.00
2019-03-15T08:23:48.056Z,69.20
2019-03-15T08:28:40.473Z,67.60
2019-03-15T08:33:31.399Z,67.60
2019-03-15T08:38:22.305Z,67.90
2019-03-15T08:43:13.216Z,68.30
2019-03-15T08:48:04.185Z,68.60
2019-03-15T08:52:55.092Z,68.90
2019-03-15T08:57:46.073Z,69.00
2019-03-15T09:02:36.984Z,68.50
2019-03-15T09:07:27.895Z,67.50
2019-03-15T09:12:18.814Z,67.70
2019-03-15T09:17:09.746Z,67.90
2019-03-15T09:22:00.889Z,68.20
2019-03-15T09:26:51.608Z,68.60
2019-03-15T09:31:47.647Z,68.60
2019-03-15T09:36:34.221Z,67.80
2019-03-15T09:41:31.450Z,67.80
2019-03-15T09:46:16.094Z,67.10
2019-03-15T09:51:07.017Z,67.30
2019-03-15T09:55:57.922Z,67.50
2019-03-15T10:00:48.836Z,67.70
2019-03-15T10:05:39.750Z,67.70
2019-03-15T10:10:30.674Z,67.90
2019-03-15T10:15:21.596Z,66.30
2019-03-15T10:20:12.867Z,65.50
2019-03-15T10:25:04.254Z,65.40
2019-03-15T10:29:55.180Z,65.80
2019-03-15T10:34:46.098Z,66.00
2019-03-15T10:39:37.028Z,65.90
2019-03-15T10:44:27.954Z,66.20
2019-03-15T10:49:18.854Z,65.30
2019-03-15T10:54:09.761Z,64.70
2019-03-15T10:59:00.713Z,64.70
2019-03-15T11:03:51.655Z,65.00
2019-03-15T11:08:43.320Z,65.00
2019-03-15T11:13:34.249Z,65.40
2019-03-15T11:18:25.176Z,65.10
2019-03-15T11:23:16.095Z,65.20
2019-03-15T11:28:07.048Z,63.80
2019-03-15T11:32:58.017Z,63.70
2019-03-15T11:37:48.935Z,63.90
2019-03-15T11:42:39.868Z,64.20
2019-03-15T11:47:45.863Z,64.40
2019-03-15T11:52:21.759Z,64.90
2019-03-15T11:57:12.670Z,63.90
2019-03-15T12:02:04.511Z,63.30
2019-03-15T12:06:54.515Z,63.00
2019-03-15T12:11:45.436Z,63.20
2019-03-15T12:16:36.355Z,63.20
2019-03-15T12:21:27.275Z,63.30
2019-03-15T12:26:18.178Z,63.40
2019-03-15T12:31:09.107Z,62.90
2019-03-15T12:36:03.195Z,62.30
2019-03-15T12:40:51.724Z,62.30
2019-03-15T12:45:42.629Z,62.60
2019-03-15T12:50:33.548Z,63.10
2019-03-15T12:55:24.474Z,63.40
2019-03-15T13:00:17.226Z,63.10
2019-03-15T13:05:08.140Z,63.20
2019-03-15T13:09:59.051Z,62.90
2019-03-15T13:14:49.958Z,63.20
2019-03-15T13:19:54.252Z,63.80
2019-03-15T13:24:32.556Z,64.40
2019-03-15T13:29:23.480Z,64.40
2019-03-15T13:34:14.444Z,63.50
2019-03-15T13:39:05.343Z,63.30
2019-03-15T13:43:56.259Z,63.60
2019-03-15T13:48:47.927Z,64.70
2019-03-15T13:53:39.593Z,65.10
2019-03-15T13:58:30.504Z,65.00
2019-03-15T14:03:21.900Z,65.10
2019-03-15T14:08:13.687Z,64.20
2019-03-15T14:13:04.616Z,64.10
2019-03-15T14:17:55.514Z,64.70
2019-03-15T14:22:46.500Z,66.30
2019-03-15T14:27:38.187Z,68.00
2019-03-15T14:32:29.099Z,68.00
2019-03-15T14:37:20.235Z,66.20
2019-03-15T14:42:11.041Z,65.80
2019-03-15T14:47:02.640Z,68.10
2019-03-15T14:51:53.566Z,68.10
2019-03-15T14:56:44.545Z,68.80
2019-03-15T15:01:35.466Z,69.20
2019-03-15T15:06:26.393Z,69.30
2019-03-15T15:11:18.784Z,67.70
2019-03-15T15:16:09.728Z,67.70
2019-03-15T15:21:00.630Z,68.60
2019-03-15T15:25:51.533Z,69.40
2019-03-15T15:30:42.454Z,69.70
2019-03-15T15:35:33.475Z,70.10
2019-03-15T15:40:24.359Z,69.90
2019-03-15T15:45:15.288Z,68.80
2019-03-15T15:50:07.927Z,69.30
2019-03-15T15:54:58.834Z,69.20
2019-03-15T15:59:49.762Z,69.30
2019-03-15T16:04:41.428Z,69.80
2019-03-15T16:09:33.084Z,70.10
2019-03-15T16:14:24.013Z,70.00
2019-03-15T16:19:14.948Z,68.20
2019-03-15T16:24:05.869Z,69.10
2019-03-15T16:28:56.770Z,69.00
2019-03-15T16:33:47.727Z,69.50
2019-03-15T16:38:40.123Z,70.90
2019-03-15T16:43:31.450Z,70.80
2019-03-15T16:48:22.377Z,68.90
2019-03-15T16:53:13.292Z,68.50
2019-03-15T16:58:04.206Z,68.10
2019-03-15T17:02:55.133Z,69.70
2019-03-15T17:07:46.116Z,70.10
2019-03-15T17:12:37.044Z,70.40
2019-03-15T17:17:28.714Z,68.60
2019-03-15T17:22:19.619Z,68.60
2019-03-15T17:27:10.544Z,68.00
2019-03-15T17:32:01.477Z,69.20
2019-03-15T17:37:05.719Z,69.60
2019-03-15T17:41:43.325Z,70.00
2019-03-15T17:46:34.226Z,70.00
2019-03-15T17:51:25.142Z,70.30
2019-03-15T17:56:16.107Z,69.20
2019-03-15T18:01:07.010Z,67.80
2019-03-15T18:05:57.943Z,67.80
2019-03-15T18:10:48.867Z,68.20
2019-03-15T18:15:39.800Z,68.30
2019-03-15T18:20:32.149Z,68.60
2019-03-15T18:25:23.233Z,68.60
2019-03-15T18:30:14.147Z,67.40
2019-03-15T18:35:05.063Z,66.50
2019-03-15T18:39:55.976Z,66.60
2019-03-15T18:44:46.905Z,66.90
2019-03-15T18:49:37.850Z,67.20
2019-03-15T18:54:28.762Z,67.20
2019-03-15T18:59:40.013Z,67.50
2019-03-15T19:04:25.632Z,65.90
2019-03-15T19:09:16.549Z,64.20
2019-03-15T19:14:07.472Z,64.10
2019-03-15T19:18:58.400Z,64.70
2019-03-15T19:23:49.306Z,64.60
2019-03-15T19:28:40.208Z,64.50
2019-03-15T19:33:31.135Z,64.90
2019-03-15T19:38:22.056Z,64.00
2019-03-15T19:43:12.973Z,63.00
2019-03-15T19:48:03.892Z,63.10
2019-03-15T19:52:54.814Z,63.60
2019-03-15T19:57:45.731Z,63.70
2019-03-15T20:02:36.658Z,63.90
2019-03-15T20:07:30.423Z,63.80
2019-03-15T20:12:21.352Z,63.80
2019-03-15T20:17:12.276Z,62.40
2019-03-15T20:22:03.196Z,62.80
2019-03-15T20:26:54.108Z,63.20
2019-03-15T20:31:45.028Z,63.60
2019-03-15T20:36:35.939Z,63.90
2019-03-15T20:41:26.865Z,64.20
2019-03-15T20:46:17.788Z,63.90
2019-03-15T20:51:08.707Z,62.80
2019-03-15T20:55:59.623Z,62.30
2019-03-15T21:00:50.545Z,63.20
2019-03-15T21:05:41.480Z,63.30
2019-03-15T21:10:32.455Z,63.10
2019-03-15T21:15:24.103Z,63.80
2019-03-15T21:20:15.956Z,63.80
2019-03-15T21:25:06.894Z,62.40
2019-03-15T21:29:57.806Z,61.70
2019-03-15T21:34:48.710Z,62.30
2019-03-15T21:39:39.623Z,62.70
2019-03-15T21:44:30.539Z,62.80
2019-03-15T21:49:21.458Z,63.20
2019-03-15T21:54:12.392Z,63.20
2019-03-15T21:59:03.312Z,62.20
2019-03-15T22:03:54.748Z,61.30
2019-03-15T22:08:45.657Z,61.30
2019-03-15T22:13:36.628Z,62.10
2019-03-15T22:18:27.549Z,62.60
2019-03-15T22:23:19.198Z,63.40
2019-03-15T22:28:10.853Z,63.60
2019-03-15T22:33:01.781Z,63.60
2019-03-15T22:37:52.693Z,63.20
2019-03-15T22:42:43.612Z,61.50
2019-03-15T22:47:34.533Z,61.90
2019-03-15T22:52:25.451Z,62.40
2019-03-15T22:57:16.376Z,62.80
2019-03-15T23:02:07.316Z,62.90
2019-03-15T23:06:58.231Z,63.20
2019-03-15T23:11:49.147Z,63.70
2019-03-15T23:16:40.280Z,62.20
2019-03-15T23:21:31.208Z,62.10
2019-03-15T23:26:22.901Z,62.80
2019-03-15T23:31:13.826Z,62.70
2019-03-15T23:36:04.744Z,63.10
2019-03-15T23:40:55.658Z,63.40
2019-03-15T23:45:46.563Z,63.60
2019-03-15T23:50:38.243Z,62.30
2019-03-15T23:55:29.157Z,62.30
